Current Weather

Rochelle Muni/Koritz Fld

Rochelle, Illinois (KRPJ)

Report from: Thursday, August 18, 2022 11:15 PM CDT
Current time: Thursday, August 18, 2022 11:52 PM CDT

Nearby weather
Weather history
Weather forecast

Temperature15.1°C (59.2°F)
Dew point15.1°C (59.2°F)
Winds 4 kts (2.1 m/s, 4.6 mph) South (170°)
Visibility10 mi. (16.1 km)
Clouds Sky clear
Altimeter29.95 in.Hg (1014 mB)
Relative humidity100 %
Density altitude216 ft. (66 m)
Remarks Fully automated report
Automated weather observing station with precipitation discriminator
Lightning detection system not operating
Flight conditions Visual Meteorological Conditions
Raw dataKRPJ 190415Z AUTO 17004KT 10SM CLR 15/15 A2995 RMK AO2 T01510151 TSNO
An unhandled exception has occurred. See browser dev tools for details. Reload 🗙